createdAt,value
2022-08-26T00:00:12.355Z,95320.03
2022-08-26T00:02:42.908Z,95324.31
2022-08-26T00:05:10.783Z,95325.63
2022-08-26T00:07:38.847Z,95322.94
2022-08-26T00:10:08.324Z,95321.19
2022-08-26T00:12:37.787Z,95312.06
2022-08-26T00:15:11.098Z,95309.31
2022-08-26T00:17:40.380Z,95306.59
2022-08-26T00:20:10.729Z,95311.16
2022-08-26T00:22:38.670Z,95318.63
2022-08-26T00:25:08.034Z,95315.09
2022-08-26T00:27:36.831Z,95311.84
2022-08-26T00:30:11.505Z,95312.84
2022-08-26T00:32:39.218Z,95309.06
2022-08-26T00:35:09.042Z,95309.28
2022-08-26T00:37:36.833Z,95314.34
2022-08-26T00:40:06.018Z,95311.13
2022-08-26T00:42:33.813Z,95316.47
2022-08-26T00:45:02.351Z,95314.28
2022-08-26T00:47:44.860Z,95304.94
2022-08-26T00:50:26.961Z,95322.88
2022-08-26T00:52:56.465Z,95318.53
2022-08-26T00:55:37.765Z,95316.53
2022-08-26T00:58:07.591Z,95318.66
2022-08-26T01:00:35.944Z,95322.13
2022-08-26T01:03:05.566Z,95315.72
2022-08-26T01:05:40.151Z,95323.19
2022-08-26T01:08:07.846Z,95314.09
2022-08-26T01:10:36.435Z,95310.38
2022-08-26T01:13:09.941Z,95314.91
2022-08-26T01:15:44.208Z,95319.44
2022-08-26T01:18:14.593Z,95310.88
2022-08-26T01:20:57.787Z,95310.88
2022-08-26T01:23:28.495Z,95311.31
2022-08-26T01:26:00.588Z,95308.59
2022-08-26T01:28:32.470Z,95312.25
2022-08-26T01:31:02.436Z,95317.28
2022-08-26T01:33:42.021Z,95312.66
2022-08-26T01:36:10.745Z,95315.09
2022-08-26T01:38:39.948Z,95311.56
2022-08-26T01:41:16.130Z,95316.09
2022-08-26T01:43:52.002Z,95311.22
2022-08-26T01:46:21.241Z,95314.16
2022-08-26T01:48:52.392Z,95319.50
2022-08-26T01:51:24.828Z,95317.88
2022-08-26T01:53:54.118Z,95321.63
2022-08-26T01:56:23.287Z,95318.38
2022-08-26T01:58:53.367Z,95316.78
2022-08-26T02:01:22.581Z,95317.56
2022-08-26T02:04:04.205Z,95313.03
2022-08-26T02:06:33.702Z,95317.31
2022-08-26T02:09:06.015Z,95321.13
2022-08-26T02:11:36.853Z,95319.00
2022-08-26T02:14:09.885Z,95317.97
2022-08-26T02:16:42.451Z,95316.66
2022-08-26T02:19:16.860Z,95317.47
2022-08-26T02:21:46.240Z,95304.59
2022-08-26T02:24:22.995Z,95311.41
2022-08-26T02:26:52.702Z,95323.25
2022-08-26T02:29:26.023Z,95317.59
2022-08-26T02:31:55.671Z,95312.56
2022-08-26T02:34:31.091Z,95314.03
2022-08-26T02:37:00.602Z,95310.94
2022-08-26T02:39:31.831Z,95307.66
2022-08-26T02:42:00.129Z,95307.50
2022-08-26T02:44:28.400Z,95304.84
2022-08-26T02:46:56.709Z,95306.56
2022-08-26T02:49:25.803Z,95306.44
2022-08-26T02:51:53.959Z,95297.81
2022-08-26T02:54:22.814Z,95300.00
2022-08-26T02:56:52.799Z,95304.84
2022-08-26T02:59:20.519Z,95306.63
2022-08-26T03:01:56.144Z,95298.09
2022-08-26T03:04:25.678Z,95297.56
2022-08-26T03:06:55.460Z,95295.19
2022-08-26T03:09:23.679Z,95292.97
2022-08-26T03:11:55.285Z,95298.78
2022-08-26T03:14:23.901Z,95296.69
2022-08-26T03:16:53.960Z,95298.88
2022-08-26T03:19:23.051Z,95299.44
2022-08-26T03:21:51.238Z,95300.91
2022-08-26T03:24:20.937Z,95285.25
2022-08-26T03:26:52.469Z,95286.19
2022-08-26T03:29:39.943Z,95285.72
2022-08-26T03:32:08.248Z,95283.47
2022-08-26T03:34:36.055Z,95295.78
2022-08-26T03:37:04.040Z,95287.28
2022-08-26T03:39:31.869Z,95280.56
2022-08-26T03:42:00.694Z,95284.16
2022-08-26T03:44:29.870Z,95286.34
2022-08-26T03:46:58.248Z,95284.84
2022-08-26T03:49:26.453Z,95284.97
2022-08-26T03:51:57.386Z,95294.34
2022-08-26T03:54:25.022Z,95291.44
2022-08-26T03:56:54.292Z,95292.03
2022-08-26T03:59:21.939Z,95294.78
2022-08-26T04:01:52.318Z,95292.34
2022-08-26T04:04:22.821Z,95297.69
2022-08-26T04:06:58.207Z,95301.72
2022-08-26T04:09:26.513Z,95298.81
2022-08-26T04:11:55.342Z,95295.59
2022-08-26T04:14:26.982Z,95290.25
2022-08-26T04:16:57.128Z,95304.41
2022-08-26T04:19:26.120Z,95301.16
2022-08-26T04:21:55.163Z,95299.34
2022-08-26T04:24:25.147Z,95301.34
2022-08-26T04:26:53.805Z,95303.19
2022-08-26T04:29:24.544Z,95296.69
2022-08-26T04:31:55.516Z,95294.94
2022-08-26T04:34:27.253Z,95296.19
2022-08-26T04:36:58.171Z,95290.28
2022-08-26T04:39:27.763Z,95284.72
2022-08-26T04:41:57.639Z,95295.28
2022-08-26T04:44:27.392Z,95301.78
2022-08-26T04:46:56.553Z,95293.34
2022-08-26T04:49:26.135Z,95299.34
2022-08-26T04:51:55.944Z,95301.09
2022-08-26T04:54:23.757Z,95295.59
2022-08-26T04:56:53.075Z,95302.78
2022-08-26T04:59:20.759Z,95308.69
2022-08-26T05:01:51.590Z,95307.06
2022-08-26T05:04:21.375Z,95303.47
2022-08-26T05:06:52.134Z,95302.28
2022-08-26T05:09:21.073Z,95311.16
2022-08-26T05:11:52.069Z,95313.44
2022-08-26T05:14:20.752Z,95317.34
2022-08-26T05:16:49.357Z,95313.50
2022-08-26T05:19:18.934Z,95318.75
2022-08-26T05:21:48.382Z,95322.28
2022-08-26T05:24:18.329Z,95313.50
2022-08-26T05:26:48.120Z,95322.44
2022-08-26T05:29:16.071Z,95319.03
2022-08-26T05:31:45.205Z,95315.28
2022-08-26T05:34:12.875Z,95323.91
2022-08-26T05:36:41.379Z,95324.56
2022-08-26T05:39:10.658Z,95324.16
2022-08-26T05:41:43.019Z,95325.53
2022-08-26T05:44:18.910Z,95327.00
2022-08-26T05:46:47.153Z,95334.59
2022-08-26T05:49:16.500Z,95334.75
2022-08-26T05:51:47.649Z,95327.97
2022-08-26T05:54:22.111Z,95325.78
2022-08-26T05:56:52.309Z,95333.56
2022-08-26T05:59:24.389Z,95335.75
2022-08-26T06:01:53.010Z,95334.44
2022-08-26T06:04:20.786Z,95338.09
2022-08-26T06:06:48.635Z,95330.06
2022-08-26T06:09:17.481Z,95330.69
2022-08-26T06:11:46.059Z,95326.97
2022-08-26T06:14:15.047Z,95325.31
2022-08-26T06:16:45.096Z,95339.13
2022-08-26T06:19:15.085Z,95337.75
2022-08-26T06:21:45.983Z,95340.63
2022-08-26T06:24:32.878Z,95336.44
2022-08-26T06:27:03.175Z,95335.50
2022-08-26T06:29:34.936Z,95332.69
2022-08-26T06:32:04.835Z,95341.63
2022-08-26T06:34:32.710Z,95344.94
2022-08-26T06:37:03.501Z,95343.75
2022-08-26T06:39:31.891Z,95349.44
2022-08-26T06:41:59.990Z,95346.84
2022-08-26T06:44:28.121Z,95339.44
2022-08-26T06:46:57.523Z,95347.34
2022-08-26T06:49:26.940Z,95348.78
2022-08-26T06:51:56.452Z,95354.75
2022-08-26T06:54:24.095Z,95352.19
2022-08-26T06:56:52.620Z,95356.06
2022-08-26T06:59:21.017Z,95351.84
2022-08-26T07:01:48.796Z,95357.34
2022-08-26T07:04:21.916Z,95350.97
2022-08-26T07:06:54.774Z,95351.81
2022-08-26T07:09:23.647Z,95348.94
2022-08-26T07:11:52.908Z,95350.06
2022-08-26T07:14:21.415Z,95350.63
2022-08-26T07:16:50.693Z,95354.97
2022-08-26T07:19:30.281Z,95344.75
2022-08-26T07:21:59.667Z,95357.72
2022-08-26T07:24:29.086Z,95352.31
2022-08-26T07:27:00.704Z,95351.00
2022-08-26T07:29:29.221Z,95350.97
2022-08-26T07:31:56.965Z,95357.69
2022-08-26T07:34:27.242Z,95363.03
2022-08-26T07:36:55.493Z,95363.03
2022-08-26T07:39:24.442Z,95355.25
2022-08-26T07:41:52.747Z,95357.41
2022-08-26T07:44:21.007Z,95359.31
2022-08-26T07:46:53.058Z,95354.41
2022-08-26T07:49:22.219Z,95361.56
2022-08-26T07:51:52.262Z,95346.91
2022-08-26T07:54:20.318Z,95357.28
2022-08-26T07:56:54.849Z,95355.00
2022-08-26T07:59:24.871Z,95354.34
2022-08-26T08:01:53.379Z,95354.34
2022-08-26T08:04:26.065Z,95355.91
2022-08-26T08:06:56.614Z,95353.19
2022-08-26T08:09:24.893Z,95361.19
2022-08-26T08:11:53.861Z,95361.19
2022-08-26T08:14:22.169Z,95358.97
2022-08-26T08:16:53.592Z,95359.13
2022-08-26T08:19:23.067Z,95363.06
2022-08-26T08:21:51.654Z,95351.69
2022-08-26T08:24:21.933Z,95349.78
2022-08-26T08:26:50.407Z,95346.31
2022-08-26T08:29:18.485Z,95351.72
2022-08-26T08:31:58.273Z,95353.59
2022-08-26T08:34:27.894Z,95356.06
2022-08-26T08:36:55.762Z,95353.88
2022-08-26T08:39:26.256Z,95354.97
2022-08-26T08:42:09.140Z,95351.81
2022-08-26T08:44:41.493Z,95356.69
2022-08-26T08:47:18.610Z,95353.97
2022-08-26T08:49:48.572Z,95346.59
2022-08-26T08:52:29.202Z,95346.09
2022-08-26T08:54:58.282Z,95342.28
2022-08-26T08:57:37.670Z,95344.66
2022-08-26T09:00:12.347Z,95344.03
2022-08-26T09:02:47.972Z,95346.66
2022-08-26T09:05:22.741Z,95341.78
2022-08-26T09:07:56.550Z,95347.19
2022-08-26T09:10:35.120Z,95342.88
2022-08-26T09:13:05.793Z,95350.94
2022-08-26T09:15:43.651Z,95357.94
2022-08-26T09:18:25.245Z,95345.41
2022-08-26T09:20:57.656Z,95344.78
2022-08-26T09:23:26.772Z,95349.75
2022-08-26T09:26:01.401Z,95351.81
2022-08-26T09:28:31.820Z,95357.63
2022-08-26T09:31:07.917Z,95356.75
2022-08-26T09:33:39.599Z,95357.75
2022-08-26T09:36:16.915Z,95347.88
2022-08-26T09:38:46.454Z,95352.91
2022-08-26T09:41:27.867Z,95351.75
2022-08-26T09:44:22.938Z,95351.44
2022-08-26T09:46:56.539Z,95333.50
2022-08-26T09:49:35.611Z,95333.59
2022-08-26T09:52:07.171Z,95335.84
2022-08-26T09:54:36.379Z,95334.88
2022-08-26T09:57:26.418Z,95319.91
2022-08-26T09:59:54.221Z,95316.28
2022-08-26T10:02:37.663Z,95317.00
2022-08-26T10:05:10.584Z,95311.50
2022-08-26T10:07:44.179Z,95302.28
2022-08-26T10:10:17.846Z,95303.78
2022-08-26T10:12:59.858Z,95288.44
2022-08-26T10:15:29.098Z,95287.31
2022-08-26T10:18:05.748Z,95286.66
2022-08-26T10:20:37.224Z,95273.66
2022-08-26T10:23:12.189Z,95285.97
2022-08-26T10:25:49.631Z,95273.34
2022-08-26T10:28:27.950Z,95273.13
2022-08-26T10:31:02.130Z,95273.47
2022-08-26T10:33:30.362Z,95264.63
2022-08-26T10:36:00.422Z,95266.16
2022-08-26T10:38:34.269Z,95256.41
2022-08-26T10:41:10.471Z,95265.63
2022-08-26T10:43:43.954Z,95261.03
2022-08-26T10:46:17.159Z,95258.59
2022-08-26T10:48:50.294Z,95253.19
2022-08-26T10:51:24.857Z,95245.81
2022-08-26T10:53:57.837Z,95250.81
2022-08-26T10:56:44.413Z,95244.47
2022-08-26T10:59:22.620Z,95236.81
2022-08-26T11:01:58.823Z,95238.16
2022-08-26T11:04:45.625Z,95231.75
2022-08-26T11:07:36.202Z,95233.09
2022-08-26T11:10:08.025Z,95223.72
2022-08-26T11:12:56.739Z,95224.72
2022-08-26T11:16:10.393Z,95222.53
2022-08-26T11:18:45.437Z,95220.81
2022-08-26T11:21:50.799Z,95215.53
2022-08-26T11:25:11.504Z,95217.00
2022-08-26T11:27:55.304Z,95216.78
2022-08-26T11:30:57.760Z,95216.16
2022-08-26T11:33:59.414Z,95206.28
2022-08-26T11:36:40.571Z,95216.72
2022-08-26T11:39:19.995Z,95210.72
2022-08-26T11:41:52.835Z,95212.25
2022-08-26T11:44:23.259Z,95213.03
2022-08-26T11:46:57.571Z,95205.25
2022-08-26T11:49:28.240Z,95200.94
2022-08-26T11:52:11.240Z,95196.94
2022-08-26T11:54:39.918Z,95188.28
2022-08-26T11:57:13.431Z,95195.00
2022-08-26T11:59:43.714Z,95194.34
2022-08-26T12:02:18.186Z,95185.22
2022-08-26T12:04:51.790Z,95170.63
2022-08-26T12:07:24.877Z,95178.19
2022-08-26T12:09:57.216Z,95176.88
2022-08-26T12:12:34.800Z,95182.25
2022-08-26T12:15:13.763Z,95178.25
2022-08-26T12:17:42.871Z,95173.91
2022-08-26T12:20:48.756Z,95170.56
2022-08-26T12:23:25.092Z,95182.16
2022-08-26T12:26:05.073Z,95169.69
2022-08-26T12:28:33.117Z,95169.81
2022-08-26T12:31:03.501Z,95163.06
2022-08-26T12:33:33.898Z,95158.72
2022-08-26T12:36:04.873Z,95158.34
2022-08-26T12:38:34.992Z,95156.44
2022-08-26T12:41:03.419Z,95159.63
2022-08-26T12:43:41.183Z,95149.31
2022-08-26T12:46:11.561Z,95147.41
2022-08-26T12:48:42.628Z,95156.06
2022-08-26T12:51:28.229Z,95145.53
2022-08-26T12:53:56.447Z,95144.41
2022-08-26T12:56:32.391Z,95141.34
2022-08-26T12:59:12.181Z,95126.78
2022-08-26T13:01:44.573Z,95130.31
2022-08-26T13:04:34.743Z,95127.25
2022-08-26T13:07:22.903Z,95123.22
2022-08-26T13:09:52.302Z,95126.50
2022-08-26T13:12:32.251Z,95128.06
2022-08-26T13:15:01.595Z,95121.16
2022-08-26T13:17:30.571Z,95112.88
2022-08-26T13:20:03.573Z,95114.72
2022-08-26T13:22:33.653Z,95107.00
2022-08-26T13:25:01.361Z,95111.47
2022-08-26T13:27:29.106Z,95116.59
2022-08-26T13:29:57.793Z,95101.31
2022-08-26T13:32:27.265Z,95107.63
2022-08-26T13:34:56.352Z,95102.13
2022-08-26T13:37:29.330Z,95102.25
2022-08-26T13:40:06.206Z,95107.06
2022-08-26T13:42:34.501Z,95105.00
2022-08-26T13:45:02.490Z,95094.16
2022-08-26T13:47:30.680Z,95098.34
2022-08-26T13:49:58.658Z,95095.38
2022-08-26T13:52:30.619Z,95102.31
2022-08-26T13:55:00.083Z,95083.50
2022-08-26T13:57:30.615Z,95092.97
2022-08-26T13:59:59.208Z,95095.16
2022-08-26T14:02:29.071Z,95095.09
2022-08-26T14:04:56.744Z,95093.78
2022-08-26T14:07:25.023Z,95096.75
2022-08-26T14:09:52.742Z,95089.28
2022-08-26T14:12:20.607Z,95088.22
2022-08-26T14:14:49.681Z,95091.38
2022-08-26T14:17:22.559Z,95088.06
2022-08-26T14:19:51.762Z,95092.75
2022-08-26T14:22:22.278Z,95091.59
2022-08-26T14:24:50.918Z,95091.09
2022-08-26T14:27:18.617Z,95077.91
2022-08-26T14:29:46.327Z,95081.97
2022-08-26T14:32:21.450Z,95084.84
2022-08-26T14:34:50.775Z,95083.34
2022-08-26T14:37:19.167Z,95078.56
2022-08-26T14:39:46.952Z,95091.06
2022-08-26T14:42:16.935Z,95079.50
2022-08-26T14:44:46.968Z,95077.47
2022-08-26T14:47:16.322Z,95071.72
2022-08-26T14:49:44.019Z,95070.47
2022-08-26T14:52:11.681Z,95068.38
2022-08-26T14:54:38.355Z,95060.22
2022-08-26T14:57:08.703Z,95054.31
2022-08-26T14:59:38.983Z,95045.97
2022-08-26T15:02:08.359Z,95050.94
2022-08-26T15:04:37.531Z,95034.75
2022-08-26T15:07:06.099Z,95042.78
2022-08-26T15:09:35.614Z,95037.34
2022-08-26T15:12:04.437Z,95049.97
2022-08-26T15:14:33.106Z,95039.38
2022-08-26T15:17:01.147Z,95049.69
2022-08-26T15:19:29.211Z,95046.34
2022-08-26T15:21:58.276Z,95046.81
2022-08-26T15:24:28.806Z,95046.38
2022-08-26T15:26:56.739Z,95045.81
2022-08-26T15:29:24.757Z,95039.06
2022-08-26T15:31:55.240Z,95043.72
2022-08-26T15:34:25.195Z,95043.16
2022-08-26T15:36:53.230Z,95037.53
2022-08-26T15:39:22.286Z,95031.63
2022-08-26T15:41:50.738Z,95035.78
2022-08-26T15:44:19.147Z,95023.66
2022-08-26T15:46:49.367Z,95020.34
2022-08-26T15:49:18.707Z,95019.91
2022-08-26T15:51:49.574Z,95024.03
2022-08-26T15:54:19.570Z,95012.94
2022-08-26T15:56:52.433Z,95024.06
2022-08-26T15:59:22.294Z,95025.19
2022-08-26T16:01:50.947Z,95024.00
2022-08-26T16:04:18.993Z,95022.09
2022-08-26T16:06:50.581Z,95024.13
2022-08-26T16:09:19.422Z,95026.53
2022-08-26T16:11:47.563Z,95017.34
2022-08-26T16:14:16.990Z,95020.00
2022-08-26T16:16:45.370Z,95025.81
2022-08-26T16:19:13.027Z,95034.47
2022-08-26T16:21:42.537Z,95032.31
2022-08-26T16:24:10.693Z,95032.47
2022-08-26T16:26:41.254Z,95031.78
2022-08-26T16:29:11.376Z,95044.81
2022-08-26T16:31:40.905Z,95042.69
2022-08-26T16:34:09.292Z,95047.81
2022-08-26T16:36:39.094Z,95044.06
2022-08-26T16:39:08.283Z,95043.56
2022-08-26T16:41:36.534Z,95037.03
2022-08-26T16:44:05.645Z,95042.09
2022-08-26T16:46:34.960Z,95043.31
2022-08-26T16:49:04.671Z,95049.88
2022-08-26T16:51:37.811Z,95049.53
2022-08-26T16:54:07.046Z,95050.94
2022-08-26T16:56:36.302Z,95050.94
2022-08-26T16:59:05.149Z,95048.28
2022-08-26T17:01:33.543Z,95052.59
2022-08-26T17:04:01.265Z,95056.72
2022-08-26T17:06:31.209Z,95051.78
2022-08-26T17:08:58.837Z,95056.75
2022-08-26T17:11:26.854Z,95050.59
2022-08-26T17:13:54.495Z,95053.59
2022-08-26T17:16:26.599Z,95056.63
2022-08-26T17:18:56.163Z,95057.22
2022-08-26T17:21:24.070Z,95054.78
2022-08-26T17:23:53.509Z,95046.97
2022-08-26T17:26:22.009Z,95056.59
2022-08-26T17:28:50.047Z,95066.25
2022-08-26T17:31:18.559Z,95068.44
2022-08-26T17:33:48.982Z,95070.84
2022-08-26T17:36:22.565Z,95080.88
2022-08-26T17:38:50.384Z,95085.75
2022-08-26T17:41:23.549Z,95100.41
2022-08-26T17:43:51.203Z,95094.88
2022-08-26T17:46:19.237Z,95093.16
2022-08-26T17:48:47.793Z,95098.63
2022-08-26T17:51:19.129Z,95103.03
2022-08-26T17:53:47.890Z,95107.44
2022-08-26T17:56:18.734Z,95114.19
2022-08-26T17:58:51.129Z,95120.63
2022-08-26T18:01:20.071Z,95121.97
2022-08-26T18:03:47.872Z,95137.06
2022-08-26T18:06:16.409Z,95139.09
2022-08-26T18:08:44.850Z,95142.78
2022-08-26T18:11:15.192Z,95152.66
2022-08-26T18:13:47.322Z,95152.53
2022-08-26T18:16:18.648Z,95155.34
2022-08-26T18:18:47.616Z,95154.41
2022-08-26T18:21:16.758Z,95156.13
2022-08-26T18:23:45.536Z,95166.16
2022-08-26T18:26:18.175Z,95170.56
2022-08-26T18:28:46.195Z,95173.00
2022-08-26T18:31:15.235Z,95172.56
2022-08-26T18:33:44.779Z,95166.09
2022-08-26T18:36:18.432Z,95156.19
2022-08-26T18:38:46.828Z,95160.28
2022-08-26T18:41:14.646Z,95153.34
2022-08-26T18:43:42.427Z,95153.94
2022-08-26T18:46:11.728Z,95153.41
2022-08-26T18:48:41.179Z,95156.13
2022-08-26T18:51:17.052Z,95157.22
2022-08-26T18:53:44.778Z,95149.16
2022-08-26T18:56:14.318Z,95144.63
2022-08-26T18:58:44.416Z,95150.84
2022-08-26T19:01:13.106Z,95152.47
2022-08-26T19:03:40.970Z,95152.50
2022-08-26T19:06:14.452Z,95155.22
2022-08-26T19:08:44.603Z,95160.09
2022-08-26T19:11:13.903Z,95163.34
2022-08-26T19:13:42.071Z,95155.81
2022-08-26T19:16:16.385Z,95155.28
2022-08-26T19:18:44.104Z,95163.34
2022-08-26T19:21:14.383Z,95172.50
2022-08-26T19:23:42.383Z,95174.13
2022-08-26T19:26:10.987Z,95173.06
2022-08-26T19:28:40.813Z,95172.56
2022-08-26T19:31:10.470Z,95174.72
2022-08-26T19:33:39.453Z,95175.56
2022-08-26T19:36:10.443Z,95170.44
2022-08-26T19:38:43.218Z,95174.50
2022-08-26T19:41:13.207Z,95183.63
2022-08-26T19:43:40.899Z,95189.56
2022-08-26T19:46:12.688Z,95187.41
2022-08-26T19:48:44.247Z,95176.94
2022-08-26T19:51:13.924Z,95175.00
2022-08-26T19:53:43.658Z,95183.53
2022-08-26T19:56:12.421Z,95187.00
2022-08-26T19:58:40.592Z,95184.63
2022-08-26T20:01:09.245Z,95193.44
2022-08-26T20:03:37.846Z,95202.06
2022-08-26T20:06:06.701Z,95206.88
2022-08-26T20:08:35.718Z,95204.72
2022-08-26T20:11:07.282Z,95216.81
2022-08-26T20:13:34.940Z,95232.34
2022-08-26T20:16:02.805Z,95237.72
2022-08-26T20:18:48.350Z,95236.47
2022-08-26T20:21:29.135Z,95242.91
2022-08-26T20:23:59.136Z,95247.69
2022-08-26T20:26:30.515Z,95239.97
2022-08-26T20:28:59.323Z,95244.78
2022-08-26T20:31:27.976Z,95242.38
2022-08-26T20:33:56.289Z,95233.03
2022-08-26T20:36:26.757Z,95236.78
2022-08-26T20:38:55.281Z,95236.28
2022-08-26T20:41:25.853Z,95237.00
2022-08-26T20:43:55.656Z,95239.97
2022-08-26T20:46:25.253Z,95228.19
2022-08-26T20:48:53.330Z,95226.06
2022-08-26T20:51:23.229Z,95223.44
2022-08-26T20:53:51.723Z,95224.25
2022-08-26T20:56:23.736Z,95212.72
2022-08-26T20:58:53.155Z,95214.84
2022-08-26T21:01:26.864Z,95217.28
2022-08-26T21:03:56.841Z,95213.25
2022-08-26T21:06:25.863Z,95214.84
2022-08-26T21:08:54.519Z,95219.16
2022-08-26T21:11:22.668Z,95229.88
2022-08-26T21:14:06.956Z,95226.94
2022-08-26T21:16:42.029Z,95235.78
2022-08-26T21:19:12.566Z,95238.75
2022-08-26T21:21:41.006Z,95239.81
2022-08-26T21:24:08.965Z,95244.38
2022-08-26T21:26:37.851Z,95243.81
2022-08-26T21:29:06.673Z,95258.03
2022-08-26T21:31:35.327Z,95253.50
2022-08-26T21:34:04.716Z,95262.38
2022-08-26T21:36:33.290Z,95270.69
2022-08-26T21:39:01.543Z,95272.28
2022-08-26T21:41:29.679Z,95276.31
2022-08-26T21:44:00.335Z,95283.84
2022-08-26T21:46:30.418Z,95282.50
2022-08-26T21:49:01.082Z,95276.09
2022-08-26T21:51:37.600Z,95289.03
2022-08-26T21:54:10.805Z,95289.03
2022-08-26T21:56:41.115Z,95296.81
2022-08-26T21:59:10.086Z,95300.84
2022-08-26T22:01:38.451Z,95295.47
2022-08-26T22:04:08.505Z,95296.00
2022-08-26T22:06:43.417Z,95293.88
2022-08-26T22:09:13.384Z,95289.28
2022-08-26T22:11:41.552Z,95285.25
2022-08-26T22:14:09.915Z,95286.88
2022-08-26T22:16:37.646Z,95284.41
2022-08-26T22:19:06.170Z,95285.19
2022-08-26T22:21:35.660Z,95276.53
2022-08-26T22:24:07.365Z,95271.63
2022-08-26T22:26:36.204Z,95274.53
2022-08-26T22:29:05.129Z,95268.88
2022-08-26T22:31:38.048Z,95272.50
2022-08-26T22:34:08.102Z,95275.69
2022-08-26T22:36:39.758Z,95274.47
2022-08-26T22:39:14.683Z,95287.59
2022-08-26T22:41:42.931Z,95290.53
2022-08-26T22:44:11.589Z,95293.97
2022-08-26T22:46:40.065Z,95300.41
2022-08-26T22:49:09.496Z,95309.25
2022-08-26T22:51:37.789Z,95316.28
2022-08-26T22:54:05.811Z,95320.38
2022-08-26T22:56:35.298Z,95316.13
2022-08-26T22:59:03.149Z,95317.75
2022-08-26T23:01:31.403Z,95331.56
2022-08-26T23:03:59.121Z,95333.41
2022-08-26T23:06:27.583Z,95330.84
2022-08-26T23:08:55.218Z,95331.88
2022-08-26T23:11:23.191Z,95334.25
2022-08-26T23:13:52.605Z,95335.00
2022-08-26T23:16:21.134Z,95328.84
2022-08-26T23:18:48.920Z,95338.06
2022-08-26T23:21:16.724Z,95335.56
2022-08-26T23:23:45.084Z,95337.69
2022-08-26T23:26:17.385Z,95335.06
2022-08-26T23:28:45.388Z,95339.75
2022-08-26T23:31:15.678Z,95352.19
2022-08-26T23:34:01.067Z,95337.25
2022-08-26T23:36:30.803Z,95334.81
2022-08-26T23:38:58.638Z,95335.22
2022-08-26T23:41:27.539Z,95332.69
2022-08-26T23:43:55.323Z,95327.63
2022-08-26T23:46:25.075Z,95331.53
2022-08-26T23:48:52.741Z,95330.38
2022-08-26T23:51:38.403Z,95331.38
2022-08-26T23:54:06.674Z,95337.25
2022-08-26T23:56:36.242Z,95336.38
2022-08-26T23:59:03.979Z,95339.84
